Impacts METAR Board INFO
IDs:

KPHX - Phoenix/Sky Harbor, AZ, US

Updated at: 2221 UTC 21 Jan 2018
Potential Impact None Slight Moderate High
Time21/10Z 21/11Z 21/12Z 21/13Z 21/14Z 21/15Z 21/16Z 21/17Z 21/18Z 21/19Z 21/20Z 21/21Z 21/22Z
VIS10 10 10 10 10 10 10 10 10 10 10 10 10
CIG-- -- -- -- -- -- -- -- -- -- -- -- --
CoverCLRCLRCLRCLRCLRFEWFEWFEWFEWFEWFEWSCTSCT
FltCatVFRVFRVFRVFRVFRVFRVFRVFRVFRVFRVFRVFRVFR
WX--------------------------
WDir28023024024029010300300300280270290300
WSpd10 5 4 9 9 4 10 10 10 9 9 9 7
WGst-- -- -- -- -- -- -- -- -- -- -- 14 --
Raw hourly METARs
KPHX 210951Z 28010KT 10SM CLR 08/M01 A3006 RMK AO2 SLP173 T00831006
KPHX 211051Z 23005KT 10SM CLR 07/M01 A3007 RMK AO2 SLP179 T00721006
KPHX 211151Z 24004KT 10SM CLR 06/M01 A3008 RMK AO2 SLP182 T00561006 10106 20056 51012
KPHX 211251Z 24009KT 10SM CLR 06/M01 A3009 RMK AO2 SLP186 T00561011
KPHX 211351Z 29009KT 10SM CLR 07/M02 A3012 RMK AO2 SLP196 T00671022
KPHX 211451Z 01004KT 10SM FEW060 06/M02 A3015 RMK AO2 SLP206 T00611017 53023
KPHX 211551Z 30010KT 10SM FEW060 08/M03 A3018 RMK AO2 SLP217 T00781033
KPHX 211651Z 30010KT 10SM FEW040 09/M03 A3020 RMK AO2 SLP223 T00891033
KPHX 211751Z 30010KT 10SM FEW040 11/M04 A3022 RMK AO2 SLP229 T01061044 10106 20050 51022
KPHX 211851Z 28009KT 10SM FEW060 12/M06 A3022 RMK AO2 SLP228 T01171061
KPHX 211951Z 27009KT 10SM FEW060 12/M07 A3020 RMK AO2 SLP222 T01221067
KPHX 212051Z 29009G14KT 10SM FEW060 SCT250 13/M07 A3018 RMK AO2 SLP215 T01281067 58013
KPHX 212151Z 30007KT 10SM FEW060 SCT250 13/M08 A3017 RMK AO2 SLP210 T01331078